sensor_id;sensor_type;location;lat;lon;timestamp;P1;durP1;ratioP1;P2;durP2;ratioP2
28822;SDS011;15961;54.678;9.110;2023-11-21T00:01:43;24.08;;;11.13;;
28822;SDS011;15961;54.678;9.110;2023-11-21T00:04:09;24.77;;;10.65;;
28822;SDS011;15961;54.678;9.110;2023-11-21T00:06:34;19.95;;;9.55;;
28822;SDS011;15961;54.678;9.110;2023-11-21T00:08:59;22.25;;;10.15;;
28822;SDS011;15961;54.678;9.110;2023-11-21T00:11:25;27.65;;;11.07;;
28822;SDS011;15961;54.678;9.110;2023-11-21T00:13:50;24.85;;;11.18;;
28822;SDS011;15961;54.678;9.110;2023-11-21T00:16:16;25.98;;;10.15;;
28822;SDS011;15961;54.678;9.110;2023-11-21T00:18:41;19.60;;;10.48;;
28822;SDS011;15961;54.678;9.110;2023-11-21T00:21:07;22.10;;;11.00;;
28822;SDS011;15961;54.678;9.110;2023-11-21T00:23:33;24.27;;;9.57;;
28822;SDS011;15961;54.678;9.110;2023-11-21T00:25:59;23.50;;;11.30;;
28822;SDS011;15961;54.678;9.110;2023-11-21T00:28:24;25.10;;;11.20;;
28822;SDS011;15961;54.678;9.110;2023-11-21T00:30:50;21.00;;;9.63;;
28822;SDS011;15961;54.678;9.110;2023-11-21T00:33:15;24.17;;;9.10;;
28822;SDS011;15961;54.678;9.110;2023-11-21T00:35:40;20.92;;;9.45;;
28822;SDS011;15961;54.678;9.110;2023-11-21T00:38:06;20.13;;;9.80;;
28822;SDS011;15961;54.678;9.110;2023-11-21T00:40:33;22.85;;;9.80;;
28822;SDS011;15961;54.678;9.110;2023-11-21T00:42:58;20.63;;;9.20;;
28822;SDS011;15961;54.678;9.110;2023-11-21T00:45:23;15.70;;;8.70;;
28822;SDS011;15961;54.678;9.110;2023-11-21T00:47:49;21.98;;;9.75;;
28822;SDS011;15961;54.678;9.110;2023-11-21T00:50:14;19.90;;;9.85;;
28822;SDS011;15961;54.678;9.110;2023-11-21T00:52:40;19.05;;;9.38;;
28822;SDS011;15961;54.678;9.110;2023-11-21T00:55:05;19.73;;;9.75;;
28822;SDS011;15961;54.678;9.110;2023-11-21T00:57:32;22.92;;;10.90;;
28822;SDS011;15961;54.678;9.110;2023-11-21T00:59:58;24.00;;;9.48;;
28822;SDS011;15961;54.678;9.110;2023-11-21T01:02:23;19.23;;;9.80;;
28822;SDS011;15961;54.678;9.110;2023-11-21T01:04:48;19.60;;;9.57;;
28822;SDS011;15961;54.678;9.110;2023-11-21T01:07:13;21.08;;;10.10;;
28822;SDS011;15961;54.678;9.110;2023-11-21T01:09:39;19.98;;;9.52;;
28822;SDS011;15961;54.678;9.110;2023-11-21T01:12:04;20.92;;;9.75;;
28822;SDS011;15961;54.678;9.110;2023-11-21T01:14:30;19.23;;;10.57;;
28822;SDS011;15961;54.678;9.110;2023-11-21T01:16:55;18.40;;;8.38;;
28822;SDS011;15961;54.678;9.110;2023-11-21T01:19:20;16.88;;;9.07;;
28822;SDS011;15961;54.678;9.110;2023-11-21T01:21:45;22.42;;;9.75;;
28822;SDS011;15961;54.678;9.110;2023-11-21T01:24:11;23.60;;;11.65;;
28822;SDS011;15961;54.678;9.110;2023-11-21T01:26:36;23.60;;;11.77;;
28822;SDS011;15961;54.678;9.110;2023-11-21T01:29:01;24.50;;;10.48;;
28822;SDS011;15961;54.678;9.110;2023-11-21T01:31:27;18.77;;;9.18;;
28822;SDS011;15961;54.678;9.110;2023-11-21T01:33:54;15.55;;;7.50;;
28822;SDS011;15961;54.678;9.110;2023-11-21T01:36:20;22.83;;;9.68;;
28822;SDS011;15961;54.678;9.110;2023-11-21T01:38:46;19.02;;;9.38;;
28822;SDS011;15961;54.678;9.110;2023-11-21T01:41:13;19.40;;;8.00;;
28822;SDS011;15961;54.678;9.110;2023-11-21T01:43:38;21.10;;;8.70;;
28822;SDS011;15961;54.678;9.110;2023-11-21T01:46:04;17.85;;;9.30;;
28822;SDS011;15961;54.678;9.110;2023-11-21T01:48:31;19.35;;;9.43;;
28822;SDS011;15961;54.678;9.110;2023-11-21T01:50:57;20.40;;;9.15;;
28822;SDS011;15961;54.678;9.110;2023-11-21T01:53:24;22.52;;;8.98;;
28822;SDS011;15961;54.678;9.110;2023-11-21T01:55:51;20.42;;;9.40;;
28822;SDS011;15961;54.678;9.110;2023-11-21T01:58:16;24.17;;;9.82;;
28822;SDS011;15961;54.678;9.110;2023-11-21T02:00:41;19.48;;;9.52;;
28822;SDS011;15961;54.678;9.110;2023-11-21T02:03:07;21.05;;;8.93;;
28822;SDS011;15961;54.678;9.110;2023-11-21T02:05:32;21.17;;;10.43;;
28822;SDS011;15961;54.678;9.110;2023-11-21T02:07:57;22.33;;;9.15;;
28822;SDS011;15961;54.678;9.110;2023-11-21T02:10:23;19.55;;;8.98;;
28822;SDS011;15961;54.678;9.110;2023-11-21T02:12:49;17.90;;;8.93;;
28822;SDS011;15961;54.678;9.110;2023-11-21T02:15:17;17.25;;;9.43;;
28822;SDS011;15961;54.678;9.110;2023-11-21T02:17:46;20.58;;;9.30;;
28822;SDS011;15961;54.678;9.110;2023-11-21T02:20:14;19.77;;;8.00;;
28822;SDS011;15961;54.678;9.110;2023-11-21T02:22:40;21.27;;;9.15;;
28822;SDS011;15961;54.678;9.110;2023-11-21T02:25:07;25.13;;;10.40;;
28822;SDS011;15961;54.678;9.110;2023-11-21T02:27:32;21.75;;;10.10;;
28822;SDS011;15961;54.678;9.110;2023-11-21T02:29:58;19.20;;;9.40;;
28822;SDS011;15961;54.678;9.110;2023-11-21T02:32:24;20.13;;;8.77;;
28822;SDS011;15961;54.678;9.110;2023-11-21T02:34:50;16.60;;;9.30;;
28822;SDS011;15961;54.678;9.110;2023-11-21T02:37:16;25.90;;;11.77;;
28822;SDS011;15961;54.678;9.110;2023-11-21T02:39:41;19.90;;;8.63;;
28822;SDS011;15961;54.678;9.110;2023-11-21T02:42:06;19.13;;;8.50;;
28822;SDS011;15961;54.678;9.110;2023-11-21T02:44:32;20.83;;;10.68;;
28822;SDS011;15961;54.678;9.110;2023-11-21T02:46:57;21.90;;;9.30;;
28822;SDS011;15961;54.678;9.110;2023-11-21T02:49:22;21.08;;;9.85;;
28822;SDS011;15961;54.678;9.110;2023-11-21T02:51:48;23.63;;;9.60;;
28822;SDS011;15961;54.678;9.110;2023-11-21T02:54:13;19.13;;;8.50;;
28822;SDS011;15961;54.678;9.110;2023-11-21T02:56:38;20.65;;;9.73;;
28822;SDS011;15961;54.678;9.110;2023-11-21T02:59:05;23.30;;;9.98;;
28822;SDS011;15961;54.678;9.110;2023-11-21T03:01:30;21.85;;;10.00;;
28822;SDS011;15961;54.678;9.110;2023-11-21T03:03:56;19.50;;;9.20;;
28822;SDS011;15961;54.678;9.110;2023-11-21T03:06:21;22.83;;;9.77;;
28822;SDS011;15961;54.678;9.110;2023-11-21T03:08:47;18.52;;;9.23;;
28822;SDS011;15961;54.678;9.110;2023-11-21T03:11:12;23.27;;;9.50;;
28822;SDS011;15961;54.678;9.110;2023-11-21T03:13:39;17.00;;;7.60;;
28822;SDS011;15961;54.678;9.110;2023-11-21T03:16:10;16.17;;;7.63;;
28822;SDS011;15961;54.678;9.110;2023-11-21T03:18:37;17.42;;;8.98;;
28822;SDS011;15961;54.678;9.110;2023-11-21T03:21:03;16.48;;;7.60;;
28822;SDS011;15961;54.678;9.110;2023-11-21T03:23:29;16.38;;;7.80;;
28822;SDS011;15961;54.678;9.110;2023-11-21T03:25:55;20.55;;;8.43;;
28822;SDS011;15961;54.678;9.110;2023-11-21T03:28:20;16.80;;;7.97;;
28822;SDS011;15961;54.678;9.110;2023-11-21T03:30:45;18.80;;;7.53;;
28822;SDS011;15961;54.678;9.110;2023-11-21T03:33:10;18.02;;;7.60;;
28822;SDS011;15961;54.678;9.110;2023-11-21T03:35:36;21.30;;;7.85;;
28822;SDS011;15961;54.678;9.110;2023-11-21T03:38:01;17.25;;;9.18;;
28822;SDS011;15961;54.678;9.110;2023-11-21T03:40:26;16.27;;;7.55;;
28822;SDS011;15961;54.678;9.110;2023-11-21T03:42:52;16.27;;;8.10;;
28822;SDS011;15961;54.678;9.110;2023-11-21T03:45:17;18.63;;;7.97;;
28822;SDS011;15961;54.678;9.110;2023-11-21T03:47:42;14.23;;;8.00;;
28822;SDS011;15961;54.678;9.110;2023-11-21T03:50:08;18.67;;;9.07;;
28822;SDS011;15961;54.678;9.110;2023-11-21T03:52:37;15.90;;;8.40;;
28822;SDS011;15961;54.678;9.110;2023-11-21T03:55:02;19.48;;;8.18;;
28822;SDS011;15961;54.678;9.110;2023-11-21T03:57:27;17.13;;;7.63;;
28822;SDS011;15961;54.678;9.110;2023-11-21T03:59:53;16.13;;;8.52;;
28822;SDS011;15961;54.678;9.110;2023-11-21T04:02:18;15.18;;;8.98;;
28822;SDS011;15961;54.678;9.110;2023-11-21T04:04:44;16.98;;;6.43;;
28822;SDS011;15961;54.678;9.110;2023-11-21T04:07:09;17.65;;;7.82;;
28822;SDS011;15961;54.678;9.110;2023-11-21T04:09:34;12.77;;;6.30;;
28822;SDS011;15961;54.678;9.110;2023-11-21T04:12:01;17.55;;;7.97;;
28822;SDS011;15961;54.678;9.110;2023-11-21T04:14:26;16.90;;;7.90;;
28822;SDS011;15961;54.678;9.110;2023-11-21T04:16:52;14.00;;;7.38;;
28822;SDS011;15961;54.678;9.110;2023-11-21T04:19:18;14.68;;;8.30;;
28822;SDS011;15961;54.678;9.110;2023-11-21T04:21:43;21.48;;;8.85;;
28822;SDS011;15961;54.678;9.110;2023-11-21T04:24:09;18.55;;;7.95;;
28822;SDS011;15961;54.678;9.110;2023-11-21T04:26:35;15.05;;;8.40;;
28822;SDS011;15961;54.678;9.110;2023-11-21T04:29:00;20.02;;;8.98;;
28822;SDS011;15961;54.678;9.110;2023-11-21T04:31:25;18.70;;;8.55;;
28822;SDS011;15961;54.678;9.110;2023-11-21T04:33:51;12.88;;;6.78;;
28822;SDS011;15961;54.678;9.110;2023-11-21T04:36:16;19.15;;;9.02;;
28822;SDS011;15961;54.678;9.110;2023-11-21T04:38:41;17.55;;;8.30;;
28822;SDS011;15961;54.678;9.110;2023-11-21T04:41:07;18.85;;;8.07;;
28822;SDS011;15961;54.678;9.110;2023-11-21T04:43:33;14.25;;;7.35;;
28822;SDS011;15961;54.678;9.110;2023-11-21T04:45:58;17.58;;;8.15;;
28822;SDS011;15961;54.678;9.110;2023-11-21T04:48:23;16.95;;;8.32;;
28822;SDS011;15961;54.678;9.110;2023-11-21T04:50:49;19.85;;;8.45;;
28822;SDS011;15961;54.678;9.110;2023-11-21T04:53:14;16.55;;;7.63;;
28822;SDS011;15961;54.678;9.110;2023-11-21T04:55:40;14.02;;;7.40;;
28822;SDS011;15961;54.678;9.110;2023-11-21T04:58:05;13.18;;;7.28;;
28822;SDS011;15961;54.678;9.110;2023-11-21T05:00:30;14.80;;;6.93;;
28822;SDS011;15961;54.678;9.110;2023-11-21T05:02:56;17.52;;;7.05;;
28822;SDS011;15961;54.678;9.110;2023-11-21T05:05:21;15.82;;;7.53;;
28822;SDS011;15961;54.678;9.110;2023-11-21T05:07:47;15.07;;;7.72;;
28822;SDS011;15961;54.678;9.110;2023-11-21T05:10:14;14.05;;;7.70;;
28822;SDS011;15961;54.678;9.110;2023-11-21T05:12:40;20.80;;;8.30;;
28822;SDS011;15961;54.678;9.110;2023-11-21T05:15:06;15.32;;;8.13;;
28822;SDS011;15961;54.678;9.110;2023-11-21T05:17:36;18.73;;;8.02;;
28822;SDS011;15961;54.678;9.110;2023-11-21T05:20:02;13.82;;;6.88;;
28822;SDS011;15961;54.678;9.110;2023-11-21T05:22:29;14.52;;;7.35;;
28822;SDS011;15961;54.678;9.110;2023-11-21T05:24:55;13.45;;;7.25;;
28822;SDS011;15961;54.678;9.110;2023-11-21T05:27:20;14.30;;;6.82;;
28822;SDS011;15961;54.678;9.110;2023-11-21T05:29:45;16.55;;;7.00;;
28822;SDS011;15961;54.678;9.110;2023-11-21T05:32:11;13.75;;;7.00;;
28822;SDS011;15961;54.678;9.110;2023-11-21T05:34:36;16.05;;;7.13;;
28822;SDS011;15961;54.678;9.110;2023-11-21T05:37:01;11.95;;;7.03;;
28822;SDS011;15961;54.678;9.110;2023-11-21T05:39:27;12.77;;;6.47;;
28822;SDS011;15961;54.678;9.110;2023-11-21T05:41:52;15.70;;;7.38;;
28822;SDS011;15961;54.678;9.110;2023-11-21T05:44:18;11.63;;;7.05;;
28822;SDS011;15961;54.678;9.110;2023-11-21T05:46:43;13.00;;;5.95;;
28822;SDS011;15961;54.678;9.110;2023-11-21T05:49:09;16.88;;;7.10;;
28822;SDS011;15961;54.678;9.110;2023-11-21T05:51:34;14.77;;;7.57;;
28822;SDS011;15961;54.678;9.110;2023-11-21T05:53:59;13.90;;;7.30;;
28822;SDS011;15961;54.678;9.110;2023-11-21T05:56:25;11.73;;;6.63;;
28822;SDS011;15961;54.678;9.110;2023-11-21T05:58:50;15.30;;;6.95;;
28822;SDS011;15961;54.678;9.110;2023-11-21T06:01:16;15.68;;;7.65;;
28822;SDS011;15961;54.678;9.110;2023-11-21T06:03:41;19.80;;;7.60;;
28822;SDS011;15961;54.678;9.110;2023-11-21T06:06:06;15.20;;;6.43;;
28822;SDS011;15961;54.678;9.110;2023-11-21T06:08:32;14.82;;;7.32;;
28822;SDS011;15961;54.678;9.110;2023-11-21T06:10:57;16.48;;;6.97;;
28822;SDS011;15961;54.678;9.110;2023-11-21T06:13:22;16.40;;;7.80;;
28822;SDS011;15961;54.678;9.110;2023-11-21T06:15:50;14.55;;;6.88;;
28822;SDS011;15961;54.678;9.110;2023-11-21T06:18:15;13.52;;;8.02;;
28822;SDS011;15961;54.678;9.110;2023-11-21T06:20:41;13.65;;;6.82;;
28822;SDS011;15961;54.678;9.110;2023-11-21T06:23:06;16.35;;;7.47;;
28822;SDS011;15961;54.678;9.110;2023-11-21T06:25:31;14.57;;;6.20;;
28822;SDS011;15961;54.678;9.110;2023-11-21T06:28:01;16.30;;;6.80;;
28822;SDS011;15961;54.678;9.110;2023-11-21T06:30:26;20.08;;;8.50;;
28822;SDS011;15961;54.678;9.110;2023-11-21T06:32:52;15.30;;;6.85;;
28822;SDS011;15961;54.678;9.110;2023-11-21T06:35:17;15.27;;;7.75;;
28822;SDS011;15961;54.678;9.110;2023-11-21T06:37:43;14.45;;;7.60;;
28822;SDS011;15961;54.678;9.110;2023-11-21T06:40:12;15.60;;;7.43;;
28822;SDS011;15961;54.678;9.110;2023-11-21T06:42:40;15.73;;;8.02;;
28822;SDS011;15961;54.678;9.110;2023-11-21T06:45:06;14.45;;;6.63;;
28822;SDS011;15961;54.678;9.110;2023-11-21T06:47:32;13.48;;;6.47;;
28822;SDS011;15961;54.678;9.110;2023-11-21T06:49:58;12.15;;;7.05;;
28822;SDS011;15961;54.678;9.110;2023-11-21T06:52:24;13.20;;;7.78;;
28822;SDS011;15961;54.678;9.110;2023-11-21T06:54:49;17.00;;;8.88;;
28822;SDS011;15961;54.678;9.110;2023-11-21T06:57:15;15.35;;;7.35;;
28822;SDS011;15961;54.678;9.110;2023-11-21T06:59:40;21.13;;;9.63;;
28822;SDS011;15961;54.678;9.110;2023-11-21T07:02:06;18.48;;;8.98;;
28822;SDS011;15961;54.678;9.110;2023-11-21T07:04:32;15.07;;;7.50;;
28822;SDS011;15961;54.678;9.110;2023-11-21T07:06:58;17.20;;;8.20;;
28822;SDS011;15961;54.678;9.110;2023-11-21T07:09:23;13.55;;;7.75;;
28822;SDS011;15961;54.678;9.110;2023-11-21T07:11:50;15.90;;;6.82;;
28822;SDS011;15961;54.678;9.110;2023-11-21T07:14:16;15.25;;;7.75;;
28822;SDS011;15961;54.678;9.110;2023-11-21T07:16:44;15.93;;;7.25;;
28822;SDS011;15961;54.678;9.110;2023-11-21T07:19:10;15.20;;;7.97;;
28822;SDS011;15961;54.678;9.110;2023-11-21T07:21:37;14.07;;;7.30;;
28822;SDS011;15961;54.678;9.110;2023-11-21T07:24:02;17.60;;;8.73;;
28822;SDS011;15961;54.678;9.110;2023-11-21T07:26:28;15.00;;;8.43;;
28822;SDS011;15961;54.678;9.110;2023-11-21T07:28:54;16.67;;;8.32;;
28822;SDS011;15961;54.678;9.110;2023-11-21T07:31:20;17.70;;;7.85;;
28822;SDS011;15961;54.678;9.110;2023-11-21T07:33:46;16.92;;;8.30;;
28822;SDS011;15961;54.678;9.110;2023-11-21T07:36:12;15.75;;;7.78;;
28822;SDS011;15961;54.678;9.110;2023-11-21T07:38:38;16.27;;;8.32;;
28822;SDS011;15961;54.678;9.110;2023-11-21T07:41:03;14.60;;;8.32;;
28822;SDS011;15961;54.678;9.110;2023-11-21T07:43:28;15.88;;;8.23;;
28822;SDS011;15961;54.678;9.110;2023-11-21T07:45:59;17.35;;;9.20;;
28822;SDS011;15961;54.678;9.110;2023-11-21T07:48:25;12.15;;;6.32;;
28822;SDS011;15961;54.678;9.110;2023-11-21T07:50:51;14.85;;;8.20;;
28822;SDS011;15961;54.678;9.110;2023-11-21T07:53:16;13.50;;;7.28;;
28822;SDS011;15961;54.678;9.110;2023-11-21T07:55:41;16.05;;;8.93;;
28822;SDS011;15961;54.678;9.110;2023-11-21T07:58:07;17.50;;;8.73;;
28822;SDS011;15961;54.678;9.110;2023-11-21T08:00:32;17.17;;;7.40;;
28822;SDS011;15961;54.678;9.110;2023-11-21T08:02:58;20.10;;;8.75;;
28822;SDS011;15961;54.678;9.110;2023-11-21T08:05:23;19.33;;;8.68;;
28822;SDS011;15961;54.678;9.110;2023-11-21T08:07:49;19.90;;;8.10;;
28822;SDS011;15961;54.678;9.110;2023-11-21T08:10:14;17.17;;;8.05;;
28822;SDS011;15961;54.678;9.110;2023-11-21T08:12:41;17.52;;;7.70;;
28822;SDS011;15961;54.678;9.110;2023-11-21T08:15:07;19.50;;;8.88;;
28822;SDS011;15961;54.678;9.110;2023-11-21T08:17:34;15.82;;;8.48;;
28822;SDS011;15961;54.678;9.110;2023-11-21T08:20:00;15.07;;;7.82;;
28822;SDS011;15961;54.678;9.110;2023-11-21T08:22:25;23.58;;;8.90;;
28822;SDS011;15961;54.678;9.110;2023-11-21T08:24:50;22.00;;;10.05;;
28822;SDS011;15961;54.678;9.110;2023-11-21T08:27:16;17.35;;;8.23;;
28822;SDS011;15961;54.678;9.110;2023-11-21T08:29:41;15.63;;;7.93;;
28822;SDS011;15961;54.678;9.110;2023-11-21T08:32:07;17.67;;;9.20;;
28822;SDS011;15961;54.678;9.110;2023-11-21T08:34:32;13.93;;;7.78;;
28822;SDS011;15961;54.678;9.110;2023-11-21T08:36:58;21.67;;;9.15;;
28822;SDS011;15961;54.678;9.110;2023-11-21T08:39:23;18.27;;;8.77;;
28822;SDS011;15961;54.678;9.110;2023-11-21T08:41:49;20.45;;;10.80;;
28822;SDS011;15961;54.678;9.110;2023-11-21T08:44:15;14.98;;;8.38;;
28822;SDS011;15961;54.678;9.110;2023-11-21T08:46:43;16.73;;;8.75;;
28822;SDS011;15961;54.678;9.110;2023-11-21T08:49:10;16.55;;;7.82;;
28822;SDS011;15961;54.678;9.110;2023-11-21T08:51:36;17.83;;;8.73;;
28822;SDS011;15961;54.678;9.110;2023-11-21T08:54:02;16.55;;;9.45;;
28822;SDS011;15961;54.678;9.110;2023-11-21T08:56:32;15.90;;;7.85;;
28822;SDS011;15961;54.678;9.110;2023-11-21T08:58:58;16.75;;;8.73;;
28822;SDS011;15961;54.678;9.110;2023-11-21T09:01:25;18.95;;;8.30;;
28822;SDS011;15961;54.678;9.110;2023-11-21T09:03:50;17.83;;;8.85;;
28822;SDS011;15961;54.678;9.110;2023-11-21T09:06:16;21.02;;;9.82;;
28822;SDS011;15961;54.678;9.110;2023-11-21T09:08:41;20.05;;;9.18;;
28822;SDS011;15961;54.678;9.110;2023-11-21T09:11:07;19.50;;;9.55;;
28822;SDS011;15961;54.678;9.110;2023-11-21T09:13:33;18.92;;;9.13;;
28822;SDS011;15961;54.678;9.110;2023-11-21T09:15:58;18.92;;;8.43;;
28822;SDS011;15961;54.678;9.110;2023-11-21T09:18:23;20.30;;;8.55;;
28822;SDS011;15961;54.678;9.110;2023-11-21T09:20:49;20.70;;;9.55;;
28822;SDS011;15961;54.678;9.110;2023-11-21T09:23:14;21.02;;;9.27;;
28822;SDS011;15961;54.678;9.110;2023-11-21T09:25:39;19.73;;;8.95;;
28822;SDS011;15961;54.678;9.110;2023-11-21T09:28:05;20.67;;;9.43;;
28822;SDS011;15961;54.678;9.110;2023-11-21T09:30:33;17.73;;;9.45;;
28822;SDS011;15961;54.678;9.110;2023-11-21T09:33:02;15.65;;;7.93;;
28822;SDS011;15961;54.678;9.110;2023-11-21T09:35:27;14.02;;;8.07;;
28822;SDS011;15961;54.678;9.110;2023-11-21T09:37:53;15.30;;;8.50;;
28822;SDS011;15961;54.678;9.110;2023-11-21T09:40:20;16.58;;;8.75;;
28822;SDS011;15961;54.678;9.110;2023-11-21T09:42:54;14.38;;;8.48;;
28822;SDS011;15961;54.678;9.110;2023-11-21T09:47:52;19.08;;;9.40;;
28822;SDS011;15961;54.678;9.110;2023-11-21T09:50:19;17.92;;;8.98;;
28822;SDS011;15961;54.678;9.110;2023-11-21T09:52:49;16.08;;;8.32;;
28822;SDS011;15961;54.678;9.110;2023-11-21T09:55:39;16.88;;;8.82;;
28822;SDS011;15961;54.678;9.110;2023-11-21T09:58:07;16.00;;;9.57;;
28822;SDS011;15961;54.678;9.110;2023-11-21T10:00:33;21.35;;;9.77;;
28822;SDS011;15961;54.678;9.110;2023-11-21T10:03:00;17.92;;;8.73;;
28822;SDS011;15961;54.678;9.110;2023-11-21T10:05:27;16.25;;;8.00;;
28822;SDS011;15961;54.678;9.110;2023-11-21T10:07:53;17.35;;;7.78;;
28822;SDS011;15961;54.678;9.110;2023-11-21T10:10:22;21.33;;;10.15;;
28822;SDS011;15961;54.678;9.110;2023-11-21T10:12:49;12.77;;;7.35;;
28822;SDS011;15961;54.678;9.110;2023-11-21T10:15:18;16.40;;;8.10;;
28822;SDS011;15961;54.678;9.110;2023-11-21T10:17:46;14.10;;;8.07;;
28822;SDS011;15961;54.678;9.110;2023-11-21T10:20:14;15.43;;;8.25;;
28822;SDS011;15961;54.678;9.110;2023-11-21T10:22:40;16.50;;;8.10;;
28822;SDS011;15961;54.678;9.110;2023-11-21T10:25:07;17.40;;;7.40;;
28822;SDS011;15961;54.678;9.110;2023-11-21T10:27:33;14.82;;;8.30;;
28822;SDS011;15961;54.678;9.110;2023-11-21T10:30:00;11.75;;;7.57;;
28822;SDS011;15961;54.678;9.110;2023-11-21T10:32:28;13.93;;;8.70;;
28822;SDS011;15961;54.678;9.110;2023-11-21T10:34:56;14.68;;;7.55;;
28822;SDS011;15961;54.678;9.110;2023-11-21T10:37:22;13.82;;;7.28;;
28822;SDS011;15961;54.678;9.110;2023-11-21T10:39:48;12.68;;;7.55;;
28822;SDS011;15961;54.678;9.110;2023-11-21T10:42:13;11.88;;;7.35;;
28822;SDS011;15961;54.678;9.110;2023-11-21T10:44:40;12.18;;;6.45;;
28822;SDS011;15961;54.678;9.110;2023-11-21T10:47:08;8.88;;;6.47;;
28822;SDS011;15961;54.678;9.110;2023-11-21T10:49:33;14.75;;;6.15;;
28822;SDS011;15961;54.678;9.110;2023-11-21T10:51:59;10.60;;;5.80;;
28822;SDS011;15961;54.678;9.110;2023-11-21T10:54:25;12.82;;;6.13;;
28822;SDS011;15961;54.678;9.110;2023-11-21T10:57:00;15.20;;;7.22;;
28822;SDS011;15961;54.678;9.110;2023-11-21T10:59:29;13.82;;;6.72;;
28822;SDS011;15961;54.678;9.110;2023-11-21T11:01:57;10.32;;;7.25;;
28822;SDS011;15961;54.678;9.110;2023-11-21T11:04:23;12.07;;;7.07;;
28822;SDS011;15961;54.678;9.110;2023-11-21T11:06:51;13.75;;;7.55;;
28822;SDS011;15961;54.678;9.110;2023-11-21T11:09:19;11.00;;;7.15;;
28822;SDS011;15961;54.678;9.110;2023-11-21T11:11:45;9.70;;;6.88;;
28822;SDS011;15961;54.678;9.110;2023-11-21T11:14:11;13.82;;;7.38;;
28822;SDS011;15961;54.678;9.110;2023-11-21T11:16:38;12.45;;;7.50;;
28822;SDS011;15961;54.678;9.110;2023-11-21T11:19:06;14.13;;;7.43;;
28822;SDS011;15961;54.678;9.110;2023-11-21T11:21:45;12.52;;;7.38;;
28822;SDS011;15961;54.678;9.110;2023-11-21T11:24:40;16.88;;;6.95;;
28822;SDS011;15961;54.678;9.110;2023-11-21T11:27:11;11.43;;;6.40;;
28822;SDS011;15961;54.678;9.110;2023-11-21T11:30:02;14.20;;;7.13;;
28822;SDS011;15961;54.678;9.110;2023-11-21T11:35:24;12.07;;;6.57;;
28822;SDS011;15961;54.678;9.110;2023-11-21T11:37:54;13.68;;;6.93;;
28822;SDS011;15961;54.678;9.110;2023-11-21T11:40:19;12.90;;;6.47;;
28822;SDS011;15961;54.678;9.110;2023-11-21T11:42:57;11.40;;;6.05;;
28822;SDS011;15961;54.678;9.110;2023-11-21T11:45:31;12.55;;;6.90;;
28822;SDS011;15961;54.678;9.110;2023-11-21T11:47:58;12.30;;;6.85;;
28822;SDS011;15961;54.678;9.110;2023-11-21T11:50:25;13.95;;;6.88;;
28822;SDS011;15961;54.678;9.110;2023-11-21T11:52:52;13.38;;;6.50;;
28822;SDS011;15961;54.678;9.110;2023-11-21T11:55:23;13.02;;;8.07;;
28822;SDS011;15961;54.678;9.110;2023-11-21T11:57:50;12.27;;;7.32;;
28822;SDS011;15961;54.678;9.110;2023-11-21T12:02:49;10.10;;;6.03;;
28822;SDS011;15961;54.678;9.110;2023-11-21T12:05:16;10.30;;;6.13;;
28822;SDS011;15961;54.678;9.110;2023-11-21T12:10:25;16.60;;;6.40;;
28822;SDS011;15961;54.678;9.110;2023-11-21T12:13:02;11.23;;;6.75;;
28822;SDS011;15961;54.678;9.110;2023-11-21T12:15:32;11.75;;;6.32;;
28822;SDS011;15961;54.678;9.110;2023-11-21T12:17:58;10.63;;;6.22;;
28822;SDS011;15961;54.678;9.110;2023-11-21T12:20:26;14.07;;;6.80;;
28822;SDS011;15961;54.678;9.110;2023-11-21T12:22:53;10.82;;;7.28;;
28822;SDS011;15961;54.678;9.110;2023-11-21T12:25:19;9.88;;;6.55;;
28822;SDS011;15961;54.678;9.110;2023-11-21T12:27:46;10.93;;;6.45;;
28822;SDS011;15961;54.678;9.110;2023-11-21T12:30:14;8.82;;;6.50;;
28822;SDS011;15961;54.678;9.110;2023-11-21T12:32:42;11.88;;;6.43;;
28822;SDS011;15961;54.678;9.110;2023-11-21T12:35:09;11.48;;;5.88;;
28822;SDS011;15961;54.678;9.110;2023-11-21T12:37:36;9.73;;;6.50;;
28822;SDS011;15961;54.678;9.110;2023-11-21T12:40:03;9.35;;;6.82;;
28822;SDS011;15961;54.678;9.110;2023-11-21T12:42:30;11.93;;;6.43;;
28822;SDS011;15961;54.678;9.110;2023-11-21T12:45:06;12.68;;;6.47;;
28822;SDS011;15961;54.678;9.110;2023-11-21T12:48:01;13.68;;;7.47;;
28822;SDS011;15961;54.678;9.110;2023-11-21T12:50:32;13.07;;;8.25;;
28822;SDS011;15961;54.678;9.110;2023-11-21T12:53:02;14.30;;;7.75;;
28822;SDS011;15961;54.678;9.110;2023-11-21T12:55:33;10.25;;;6.38;;
28822;SDS011;15961;54.678;9.110;2023-11-21T12:58:02;12.23;;;7.22;;
28822;SDS011;15961;54.678;9.110;2023-11-21T13:00:37;13.73;;;7.68;;
28822;SDS011;15961;54.678;9.110;2023-11-21T13:03:06;13.60;;;7.45;;
28822;SDS011;15961;54.678;9.110;2023-11-21T13:05:33;13.52;;;7.93;;
28822;SDS011;15961;54.678;9.110;2023-11-21T13:08:00;13.27;;;6.82;;
28822;SDS011;15961;54.678;9.110;2023-11-21T13:10:28;15.95;;;8.15;;
28822;SDS011;15961;54.678;9.110;2023-11-21T13:12:55;12.70;;;6.28;;
28822;SDS011;15961;54.678;9.110;2023-11-21T13:15:25;10.02;;;6.35;;
28822;SDS011;15961;54.678;9.110;2023-11-21T13:17:52;16.58;;;8.05;;
28822;SDS011;15961;54.678;9.110;2023-11-21T13:20:18;13.00;;;7.40;;
28822;SDS011;15961;54.678;9.110;2023-11-21T13:22:55;14.60;;;6.57;;
28822;SDS011;15961;54.678;9.110;2023-11-21T13:25:27;13.02;;;6.93;;
28822;SDS011;15961;54.678;9.110;2023-11-21T13:27:56;14.07;;;6.97;;
28822;SDS011;15961;54.678;9.110;2023-11-21T13:30:25;13.80;;;7.15;;
28822;SDS011;15961;54.678;9.110;2023-11-21T13:32:58;12.18;;;7.38;;
28822;SDS011;15961;54.678;9.110;2023-11-21T13:35:27;13.75;;;7.60;;
28822;SDS011;15961;54.678;9.110;2023-11-21T13:38:04;10.63;;;5.05;;
28822;SDS011;15961;54.678;9.110;2023-11-21T13:40:31;10.70;;;6.25;;
28822;SDS011;15961;54.678;9.110;2023-11-21T13:42:59;10.48;;;6.00;;
28822;SDS011;15961;54.678;9.110;2023-11-21T13:45:25;8.93;;;6.05;;
28822;SDS011;15961;54.678;9.110;2023-11-21T13:47:52;10.20;;;6.25;;
28822;SDS011;15961;54.678;9.110;2023-11-21T13:50:23;10.05;;;5.78;;
28822;SDS011;15961;54.678;9.110;2023-11-21T13:52:51;13.48;;;5.28;;
28822;SDS011;15961;54.678;9.110;2023-11-21T13:55:18;12.55;;;6.97;;
28822;SDS011;15961;54.678;9.110;2023-11-21T13:57:43;11.88;;;7.05;;
28822;SDS011;15961;54.678;9.110;2023-11-21T14:00:12;13.48;;;7.13;;
28822;SDS011;15961;54.678;9.110;2023-11-21T14:02:57;12.77;;;6.22;;
28822;SDS011;15961;54.678;9.110;2023-11-21T14:05:26;15.68;;;7.05;;
28822;SDS011;15961;54.678;9.110;2023-11-21T14:07:54;12.73;;;6.00;;
28822;SDS011;15961;54.678;9.110;2023-11-21T14:10:29;13.07;;;7.10;;
28822;SDS011;15961;54.678;9.110;2023-11-21T14:13:04;12.18;;;7.50;;
28822;SDS011;15961;54.678;9.110;2023-11-21T14:15:30;10.48;;;6.35;;
28822;SDS011;15961;54.678;9.110;2023-11-21T14:17:57;11.93;;;6.60;;
28822;SDS011;15961;54.678;9.110;2023-11-21T14:20:24;13.07;;;7.25;;
28822;SDS011;15961;54.678;9.110;2023-11-21T14:22:50;16.00;;;6.25;;
28822;SDS011;15961;54.678;9.110;2023-11-21T14:25:15;12.57;;;6.95;;
28822;SDS011;15961;54.678;9.110;2023-11-21T14:27:42;10.35;;;6.40;;
28822;SDS011;15961;54.678;9.110;2023-11-21T14:30:07;13.55;;;7.93;;
28822;SDS011;15961;54.678;9.110;2023-11-21T14:32:33;11.25;;;7.05;;
28822;SDS011;15961;54.678;9.110;2023-11-21T14:34:59;10.60;;;6.07;;
28822;SDS011;15961;54.678;9.110;2023-11-21T14:37:24;16.05;;;7.07;;
28822;SDS011;15961;54.678;9.110;2023-11-21T14:39:50;12.45;;;6.07;;
28822;SDS011;15961;54.678;9.110;2023-11-21T14:42:15;11.98;;;6.28;;